Time;durP1;ratioP1;P1;durP2;ratioP2;P2;SDS_P1;SDS_P2;PMS_P1;PMS_P2;Temp;Humidity;BMP_temperature;BMP_pressure;BME280_temperature;BME280_humidity;BME280_pressure;Samples;Min_cycle;Max_cycle;Signal;HPM_P1;HPM_P2
2021/09/26 00:00:39;;;;;;;40.83;25.92;;;;;;;16.57;100.00;100097.09;6197255;23;20008;-74
2021/09/26 00:03:05;;;;;;;34.30;23.92;;;;;;;16.58;100.00;100101.56;6249153;23;20491;-74
2021/09/26 00:05:30;;;;;;;33.72;23.10;;;;;;;16.59;100.00;100097.59;6249283;23;20015;-74
2021/09/26 00:07:56;;;;;;;39.45;27.10;;;;;;;16.60;100.00;100089.97;6197454;23;20008;-74
2021/09/26 00:10:21;;;;;;;40.67;26.60;;;;;;;16.61;100.00;100092.47;6196974;23;20062;-74
2021/09/26 00:12:47;;;;;;;37.60;25.13;;;;;;;16.61;100.00;100092.47;6197183;23;20001;-74
2021/09/26 00:15:17;;;;;;;36.60;25.65;;;;;;;16.62;100.00;100096.88;6248736;23;20007;-74
2021/09/26 00:17:42;;;;;;;42.38;26.73;;;;;;;16.62;100.00;100108.09;6249329;23;20011;-74
2021/09/26 00:20:08;;;;;;;44.72;28.27;;;;;;;16.63;100.00;100101.34;6222076;23;20012;-74
2021/09/26 00:22:34;;;;;;;43.53;27.52;;;;;;;16.64;100.00;100107.78;6247225;23;20413;-74
2021/09/26 00:25:00;;;;;;;44.13;28.52;;;;;;;16.64;100.00;100108.59;6222088;23;20031;-74
2021/09/26 00:27:25;;;;;;;43.33;27.75;;;;;;;16.64;100.00;100102.97;6222067;23;20011;-74
2021/09/26 00:29:51;;;;;;;52.38;30.75;;;;;;;16.67;100.00;100113.50;6197415;23;20015;-74
2021/09/26 00:32:16;;;;;;;40.47;26.58;;;;;;;16.67;100.00;100107.88;6197140;23;20007;-74
2021/09/26 00:34:42;;;;;;;48.30;30.73;;;;;;;16.68;100.00;100115.13;6196323;23;20012;-74
2021/09/26 00:37:07;;;;;;;44.22;29.75;;;;;;;16.68;100.00;100115.13;6248850;23;20015;-74
2021/09/26 00:39:33;;;;;;;47.38;28.75;;;;;;;16.69;100.00;100115.97;6249271;23;20417;-74
2021/09/26 00:41:59;;;;;;;45.28;30.10;;;;;;;16.70;100.00;100112.81;6248964;23;20008;-74
2021/09/26 00:44:24;;;;;;;50.22;29.70;;;;;;;16.70;100.00;100106.38;6222045;23;20142;-74
2021/09/26 00:46:50;;;;;;;43.53;29.98;;;;;;;16.71;100.00;100108.81;6248813;23;20004;-74
2021/09/26 00:49:15;;;;;;;55.30;31.77;;;;;;;16.72;100.00;100104.06;6248579;23;20004;-75
2021/09/26 00:51:42;;;;;;;47.13;30.10;;;;;;;16.72;100.00;100104.88;6248906;23;20119;-74
2021/09/26 00:54:08;;;;;;;47.38;30.98;;;;;;;16.72;100.00;100098.47;6222649;23;20356;-74
2021/09/26 00:56:33;;;;;;;49.22;29.38;;;;;;;16.74;100.00;100104.50;6249237;23;20016;-74
2021/09/26 00:58:59;;;;;;;59.30;31.05;;;;;;;16.73;100.00;100100.91;6222066;23;20019;-74
2021/09/26 01:01:24;;;;;;;45.22;30.13;;;;;;;16.74;100.00;100096.94;6222213;23;20012;-74
2021/09/26 01:03:51;;;;;;;48.40;29.42;;;;;;;16.75;100.00;100098.56;6248545;23;20008;-74
2021/09/26 01:06:22;;;;;;;49.63;29.40;;;;;;;16.77;100.00;100097.44;6198364;23;20008;-75
2021/09/26 01:09:03;;;;;;;47.40;29.23;;;;;;;16.77;100.00;100100.22;6250791;23;20004;-74
2021/09/26 01:11:45;;;;;;;43.35;27.67;;;;;;;16.77;100.00;100105.84;6200868;23;20026;-74
2021/09/26 01:14:26;;;;;;;42.22;28.10;;;;;;;16.77;100.00;100094.63;6248981;23;20083;-74
2021/09/26 01:17:14;;;;;;;41.67;27.60;;;;;;;16.78;100.00;100085.06;6223979;23;20489;-74
2021/09/26 01:19:46;;;;;;;47.53;28.52;;;;;;;16.79;100.00;100093.13;6248980;23;20030;-74
2021/09/26 01:22:16;;;;;;;50.47;27.85;;;;;;;16.77;100.00;100081.44;6175178;23;20019;-75
2021/09/26 01:25:07;;;;;;;40.40;25.35;;;;;;;16.78;100.00;100079.47;6224412;23;20008;-74
2021/09/26 01:27:41;;;;;;;36.05;24.20;;;;;;;16.78;100.00;100073.84;6250560;23;20012;-74
2021/09/26 01:30:23;;;;;;;37.42;25.50;;;;;;;16.77;100.00;100073.03;6199623;23;20421;-74
2021/09/26 01:33:24;;;;;;;34.95;22.52;;;;;;;16.75;100.00;100064.94;6250514;23;20000;-74
2021/09/26 01:36:05;;;;;;;40.20;26.17;;;;;;;16.75;100.00;100073.34;6223886;23;20019;-74
2021/09/26 01:38:42;;;;;;;34.95;23.80;;;;;;;16.74;100.00;100068.91;6223796;23;20012;-74
2021/09/26 01:41:19;;;;;;;35.60;24.95;;;;;;;16.74;100.00;100068.06;6250544;23;20004;-74
2021/09/26 01:43:45;;;;;;;40.38;24.98;;;;;;;16.72;100.00;100070.41;6250303;23;20004;-74
2021/09/26 01:46:12;;;;;;;41.53;23.73;;;;;;;16.72;100.00;100076.84;6223584;23;20004;-74
2021/09/26 01:48:45;;;;;;;37.13;24.08;;;;;;;16.72;100.00;100081.63;6198623;23;20082;-74
2021/09/26 01:51:10;;;;;;;;;;;;;;;16.71;100.00;100086.41;6223849;23;20357;-74
2021/09/26 01:53:37;;;;;;;36.00;23.13;;;;;;;16.69;100.00;100091.56;6250831;23;19974;-74
2021/09/26 01:56:04;;;;;;;34.08;22.85;;;;;;;16.68;100.00;100081.47;6198680;23;20023;-74
2021/09/26 01:58:29;;;;;;;29.27;21.23;;;;;;;16.70;100.00;100089.56;6198570;23;20044;-74
2021/09/26 02:00:55;;;;;;;34.42;22.55;;;;;;;16.70;100.00;100089.56;6173827;23;20445;-74
2021/09/26 02:03:20;;;;;;;29.05;19.98;;;;;;;16.67;100.00;100093.88;6173575;23;20015;-74
2021/09/26 02:05:46;;;;;;;35.70;21.48;;;;;;;16.68;100.00;100092.69;6173777;23;20086;-74
2021/09/26 02:08:11;;;;;;;28.00;20.92;;;;;;;16.69;100.00;100093.53;6223490;23;20134;-74
2021/09/26 02:10:37;;;;;;;33.05;20.33;;;;;;;16.68;100.00;100087.09;6248560;23;20087;-74
2021/09/26 02:13:03;;;;;;;34.22;20.20;;;;;;;16.69;100.00;100083.13;6198353;23;20041;-74
2021/09/26 02:15:28;;;;;;;28.50;19.98;;;;;;;16.70;100.00;100081.97;6198549;23;20457;-75
2021/09/26 02:17:54;;;;;;;32.95;20.60;;;;;;;16.72;100.00;100081.63;6197944;23;20012;-75
2021/09/26 02:20:20;;;;;;;32.83;19.42;;;;;;;16.71;100.00;100077.97;6197856;23;20349;-74
2021/09/26 02:22:47;;;;;;;30.58;19.30;;;;;;;16.73;100.00;100075.66;6250036;23;20444;-74
2021/09/26 02:25:13;;;;;;;27.95;18.67;;;;;;;16.72;100.00;100081.63;6223878;23;20075;-75
2021/09/26 02:27:39;;;;;;;34.65;20.17;;;;;;;16.74;100.00;100085.72;6223434;23;20008;-74
2021/09/26 02:30:05;;;;;;;28.52;18.02;;;;;;;16.74;100.00;100079.28;6148293;23;20008;-74
2021/09/26 02:32:31;;;;;;;26.30;17.17;;;;;;;16.76;100.00;100076.97;6148522;23;20344;-74
2021/09/26 02:34:56;;;;;;;27.05;17.00;;;;;;;16.74;100.00;100074.50;6223600;23;20008;-74
2021/09/26 02:37:22;;;;;;;29.00;17.00;;;;;;;16.75;100.00;100069.72;6250196;23;20012;-74
2021/09/26 02:39:47;;;;;;;30.80;19.52;;;;;;;16.78;100.00;100068.25;6223097;23;20030;-75
2021/09/26 02:42:34;;;;;;;26.52;17.38;;;;;;;16.78;100.00;100074.66;6223316;23;20363;-75
2021/09/26 02:45:08;;;;;;;32.63;18.27;;;;;;;16.80;100.00;100071.50;6200249;23;20004;-74
2021/09/26 02:47:38;;;;;;;33.33;18.25;;;;;;;16.78;100.00;100062.63;6247890;23;20008;-75
2021/09/26 02:50:04;;;;;;;28.42;19.05;;;;;;;16.81;100.00;100059.13;6223597;23;20059;-74
2021/09/26 02:52:29;;;;;;;33.70;18.02;;;;;;;16.81;100.00;100053.53;6250097;23;20008;-74
2021/09/26 02:54:55;;;;;;;25.17;17.10;;;;;;;16.81;100.00;100067.53;6198068;23;20012;-74
2021/09/26 02:57:22;;;;;;;24.20;17.60;;;;;;;16.81;100.00;100059.94;6222454;23;20008;-74
2021/09/26 02:59:47;;;;;;;29.23;17.98;;;;;;;16.81;100.00;100059.13;6198461;23;20063;-74
2021/09/26 03:02:13;;;;;;;27.02;16.50;;;;;;;16.79;100.00;100065.06;6198002;23;20004;-74
2021/09/26 03:04:44;;;;;;;25.50;16.70;;;;;;;16.80;100.00;100063.94;6223031;23;20012;-74
2021/09/26 03:07:11;;;;;;;26.33;16.70;;;;;;;16.80;100.00;100057.47;6172831;23;20015;-74
2021/09/26 03:09:37;;;;;;;28.13;16.77;;;;;;;16.80;100.00;100068.69;6198176;23;20019;-74
2021/09/26 03:12:10;;;;;;;26.60;16.45;;;;;;;16.80;100.00;100063.09;6222836;23;20429;-74
2021/09/26 03:14:36;;;;;;;27.25;15.63;;;;;;;16.79;100.00;100058.66;6198051;23;20000;-74
2021/09/26 03:17:01;;;;;;;30.00;18.10;;;;;;;16.78;100.00;100062.63;6197567;23;20004;-74
2021/09/26 03:19:27;;;;;;;21.40;16.25;;;;;;;16.77;100.00;100061.81;6248945;23;20018;-74
2021/09/26 03:21:52;;;;;;;26.95;15.98;;;;;;;16.78;100.00;100057.03;6249508;23;20008;-74
2021/09/26 03:24:18;;;;;;;24.52;16.33;;;;;;;16.78;100.00;100054.22;6172851;23;20039;-74
2021/09/26 03:26:43;;;;;;;24.98;16.05;;;;;;;16.75;100.00;100058.50;6249707;23;20004;-74
2021/09/26 03:29:09;;;;;;;22.73;16.10;;;;;;;16.77;100.00;100055.38;6248810;23;20023;-74
2021/09/26 03:31:34;;;;;;;24.08;15.30;;;;;;;16.77;100.00;100059.00;6249477;23;20037;-74
2021/09/26 03:34:00;;;;;;;22.15;15.98;;;;;;;16.77;100.00;100049.75;6222368;23;20372;-74
2021/09/26 03:36:25;;;;;;;20.50;14.57;;;;;;;16.74;100.00;100049.28;6222928;23;20015;-74
2021/09/26 03:38:51;;;;;;;24.83;15.23;;;;;;;16.76;100.00;100048.91;6197260;23;20012;-74
2021/09/26 03:41:16;;;;;;;28.27;16.35;;;;;;;16.74;100.00;100049.28;6148216;23;20016;-74
2021/09/26 03:43:41;;;;;;;30.75;18.05;;;;;;;16.77;100.00;100055.38;6197100;23;20011;-74
2021/09/26 03:46:07;;;;;;;28.50;16.38;;;;;;;16.75;100.00;100053.72;6222237;23;20012;-74
2021/09/26 03:48:33;;;;;;;28.50;16.60;;;;;;;16.75;100.00;100045.28;6197534;23;20008;-74
2021/09/26 03:50:58;;;;;;;27.20;17.40;;;;;;;16.77;100.00;100049.75;6222425;23;20015;-74
2021/09/26 03:53:24;;;;;;;28.65;17.23;;;;;;;16.73;100.00;100050.44;6249325;23;20015;-74
2021/09/26 03:55:49;;;;;;;25.40;15.68;;;;;;;16.74;100.00;100051.25;6222185;23;20012;-74
2021/09/26 03:58:15;;;;;;;26.67;16.52;;;;;;;16.74;100.00;100057.69;6249526;23;20015;-74
2021/09/26 04:00:40;;;;;;;22.63;14.93;;;;;;;16.73;100.00;100064.44;6249260;23;20012;-74
2021/09/26 04:03:06;;;;;;;20.77;14.07;;;;;;;16.72;100.00;100057.22;6248758;23;20010;-75
2021/09/26 04:05:31;;;;;;;27.67;15.25;;;;;;;16.72;100.00;100057.22;6222381;23;20008;-75
2021/09/26 04:07:57;;;;;;;20.95;14.75;;;;;;;16.73;100.00;100049.63;6197525;23;20015;-74
2021/09/26 04:10:22;;;;;;;21.63;14.20;;;;;;;16.72;100.00;100056.41;6222253;23;20012;-74
2021/09/26 04:12:49;;;;;;;27.52;16.05;;;;;;;16.73;100.00;100063.63;6222392;23;20000;-74
2021/09/26 04:15:15;;;;;;;25.40;14.57;;;;;;;16.69;100.00;100071.94;6248715;23;20428;-74
2021/09/26 04:17:41;;;;;;;22.25;13.32;;;;;;;16.70;100.00;100067.13;6222037;23;20027;-74
2021/09/26 04:20:07;;;;;;;20.77;14.45;;;;;;;16.71;100.00;100080.78;6249136;23;20020;-74
2021/09/26 04:22:33;;;;;;;26.08;16.13;;;;;;;16.72;100.00;100076.84;6249129;23;20004;-74
2021/09/26 04:24:58;;;;;;;25.65;14.38;;;;;;;16.71;100.00;100080.78;6248761;23;20079;-74
2021/09/26 04:27:24;;;;;;;24.98;14.73;;;;;;;16.72;100.00;100076.03;6248777;23;20018;-74
2021/09/26 04:29:49;;;;;;;26.13;15.40;;;;;;;16.72;100.00;100082.44;6222279;23;20012;-74
2021/09/26 04:32:15;;;;;;;24.23;14.15;;;;;;;16.72;100.00;100076.03;6249070;23;20008;-74
2021/09/26 04:34:41;;;;;;;24.33;13.90;;;;;;;16.73;100.00;100083.25;6249132;23;20004;-74
2021/09/26 04:37:06;;;;;;;23.05;14.10;;;;;;;16.71;100.00;100088.38;6248850;23;20330;-74
2021/09/26 04:39:32;;;;;;;19.73;12.63;;;;;;;16.72;100.00;100085.25;6222425;23;20004;-74
2021/09/26 04:41:57;;;;;;;23.67;12.57;;;;;;;16.71;100.00;100089.19;6223652;23;20008;-74
2021/09/26 04:44:23;;;;;;;24.83;13.43;;;;;;;16.72;100.00;100081.63;6251158;23;20004;-74
2021/09/26 04:46:48;;;;;;;22.20;13.02;;;;;;;16.72;100.00;100081.63;6224265;23;20015;-74
2021/09/26 04:49:14;;;;;;;20.13;12.05;;;;;;;16.72;100.00;100087.25;6250996;23;20012;-75
2021/09/26 04:51:39;;;;;;;24.27;13.52;;;;;;;16.72;100.00;100090.84;6250909;23;20452;-74
2021/09/26 04:54:05;;;;;;;20.40;11.65;;;;;;;16.71;100.00;100092.00;6199553;23;20012;-74
2021/09/26 04:56:30;;;;;;;20.55;12.93;;;;;;;16.70;100.00;100093.19;6249533;23;20019;-74
2021/09/26 04:58:56;;;;;;;21.83;12.75;;;;;;;16.72;100.00;100092.84;6199311;23;20055;-74
2021/09/26 05:01:21;;;;;;;19.85;11.77;;;;;;;16.71;100.00;100099.59;6250904;23;20011;-74
2021/09/26 05:03:47;;;;;;;19.38;12.10;;;;;;;16.71;100.00;100103.22;6198941;23;20004;-74
2021/09/26 05:06:14;;;;;;;25.88;12.52;;;;;;;16.71;100.00;100108.81;6251119;23;20420;-74
2021/09/26 05:08:40;;;;;;;18.02;11.38;;;;;;;16.70;100.00;100115.63;6224429;23;20066;-74
2021/09/26 05:11:06;;;;;;;21.38;12.27;;;;;;;16.72;100.00;100115.28;6199192;23;20325;-74
2021/09/26 05:13:31;;;;;;;23.23;13.20;;;;;;;16.67;100.00;100119.09;6250731;23;20011;-74
2021/09/26 05:15:57;;;;;;;17.00;11.20;;;;;;;16.68;100.00;100120.75;6250959;23;20004;-74
2021/09/26 05:18:22;;;;;;;17.15;10.57;;;;;;;16.69;100.00;100122.41;6223828;23;20009;-74
2021/09/26 05:20:52;;;;;;;15.98;10.38;;;;;;;16.67;100.00;100116.31;6198685;23;20015;-74
2021/09/26 05:23:18;;;;;;;23.58;10.80;;;;;;;16.67;100.00;100123.91;6200517;23;20372;-74
2021/09/26 05:25:43;;;;;;;17.67;10.68;;;;;;;16.67;100.00;100124.72;6198718;23;20000;-74
2021/09/26 05:28:10;;;;;;;16.63;9.75;;;;;;;16.66;100.00;100127.84;6174423;23;20023;-74
2021/09/26 05:30:35;;;;;;;14.63;9.57;;;;;;;16.63;100.00;100126.59;6224202;23;20081;-74
2021/09/26 05:33:01;;;;;;;12.90;8.77;;;;;;;16.63;100.00;100126.59;6250588;23;20004;-74
2021/09/26 05:35:27;;;;;;;14.43;9.18;;;;;;;16.59;100.00;100125.63;6250641;23;20004;-74
2021/09/26 05:37:53;;;;;;;15.02;8.63;;;;;;;16.59;100.00;100125.63;6224077;23;20007;-74
2021/09/26 05:40:18;;;;;;;16.05;8.60;;;;;;;16.59;100.00;100131.22;6224118;23;20012;-74
2021/09/26 05:42:44;;;;;;;14.25;8.70;;;;;;;16.59;100.00;100134.03;6173679;23;20436;-74
2021/09/26 05:45:10;;;;;;;11.40;7.97;;;;;;;16.58;100.00;100135.19;6173544;23;20016;-74
2021/09/26 05:47:35;;;;;;;17.13;9.18;;;;;;;16.57;100.00;100141.94;6173725;23;20030;-74
2021/09/26 05:50:00;;;;;;;13.52;8.40;;;;;;;16.57;100.00;100141.94;6198915;23;20010;-74
2021/09/26 05:52:26;;;;;;;13.65;8.95;;;;;;;16.59;100.00;100139.63;6223263;23;20008;-74
2021/09/26 05:54:52;;;;;;;13.10;8.57;;;;;;;16.57;100.00;100147.56;6223620;23;20004;-74
2021/09/26 05:57:18;;;;;;;12.98;7.97;;;;;;;16.56;100.00;100156.31;6223573;23;20440;-73
2021/09/26 05:59:43;;;;;;;11.32;8.00;;;;;;;16.54;100.00;100160.28;6248732;23;20389;-74
2021/09/26 06:02:10;;;;;;;14.95;7.57;;;;;;;16.54;100.00;100162.25;6250696;23;20015;-73
2021/09/26 06:04:36;;;;;;;11.20;7.38;;;;;;;16.54;100.00;100173.47;6250389;23;20087;-73
2021/09/26 06:07:01;;;;;;;14.63;7.38;;;;;;;16.53;100.00;100175.47;6198550;23;20052;-74
2021/09/26 06:09:27;;;;;;;12.65;8.32;;;;;;;16.54;100.00;100179.91;6223608;23;20429;-73
2021/09/26 06:11:52;;;;;;;10.20;7.70;;;;;;;16.53;100.00;100180.25;6248911;23;20008;-73
2021/09/26 06:14:18;;;;;;;11.82;8.48;;;;;;;16.56;100.00;100187.16;6223322;23;20077;-73
2021/09/26 06:16:43;;;;;;;9.98;8.10;;;;;;;16.53;100.00;100181.06;6223417;23;20008;-73
2021/09/26 06:19:09;;;;;;;14.82;8.07;;;;;;;16.54;100.00;100187.50;6249750;23;20358;-74
2021/09/26 06:21:34;;;;;;;11.65;7.65;;;;;;;16.53;100.00;100191.47;6223244;23;20011;-77
2021/09/26 06:24:00;;;;;;;13.52;8.40;;;;;;;16.54;100.00;100193.09;6149103;23;20011;-77
2021/09/26 06:26:25;;;;;;;13.38;7.85;;;;;;;16.53;100.00;100195.09;6173791;23;20008;-70
2021/09/26 06:28:53;;;;;;;12.30;7.45;;;;;;;16.51;100.00;100200.22;6148941;23;20011;-71
2021/09/26 06:31:19;;;;;;;11.40;7.30;;;;;;;16.52;100.00;100199.06;6223233;23;20008;-71
2021/09/26 06:33:45;;;;;;;11.20;7.55;;;;;;;16.50;100.00;100201.38;6222883;23;20079;-71
2021/09/26 06:36:11;;;;;;;16.67;9.60;;;;;;;16.52;100.00;100206.66;6250087;23;20000;-71
2021/09/26 06:38:36;;;;;;;13.70;7.53;;;;;;;16.51;100.00;100207.81;6148975;23;20067;-71
2021/09/26 06:41:02;;;;;;;12.90;8.57;;;;;;;16.52;100.00;100210.28;6173039;23;20011;-71
2021/09/26 06:43:27;;;;;;;15.68;10.38;;;;;;;16.52;100.00;100207.47;6173134;23;20012;-72
2021/09/26 06:45:53;;;;;;;18.85;10.75;;;;;;;16.53;100.00;100220.31;6223186;23;20338;-72
2021/09/26 06:48:18;;;;;;;20.02;11.75;;;;;;;16.54;100.00;100221.13;6198326;23;20039;-72
2021/09/26 06:50:45;;;;;;;14.90;8.73;;;;;;;16.50;100.00;100223.81;6249702;23;20333;-72
2021/09/26 06:53:11;;;;;;;21.98;13.55;;;;;;;16.54;100.00;100224.75;6222864;23;20004;-72
2021/09/26 06:55:36;;;;;;;19.02;12.10;;;;;;;16.54;100.00;100226.75;6249830;23;20020;-72
2021/09/26 06:58:02;;;;;;;14.50;10.73;;;;;;;16.56;100.00;100232.81;6198212;23;20429;-72
2021/09/26 07:00:27;;;;;;;15.82;10.43;;;;;;;16.56;100.00;100238.44;6223169;23;20031;-72
2021/09/26 07:02:53;;;;;;;26.38;14.77;;;;;;;16.57;100.00;100237.25;6222689;23;20004;-72
2021/09/26 07:05:18;;;;;;;14.75;9.50;;;;;;;16.53;100.00;100233.50;6249554;23;20007;-72
2021/09/26 07:07:46;;;;;;;12.82;9.43;;;;;;;16.55;100.00;100234.00;6222509;23;20012;-72
2021/09/26 07:10:12;;;;;;;14.23;10.07;;;;;;;16.57;100.00;100242.06;6198349;23;20010;-72
2021/09/26 07:12:37;;;;;;;19.60;11.07;;;;;;;16.56;100.00;100249.66;6222776;23;20010;-72
2021/09/26 07:15:03;;;;;;;15.60;10.60;;;;;;;16.57;100.00;100250.47;6222498;23;20008;-72
2021/09/26 07:17:29;;;;;;;17.02;10.10;;;;;;;16.57;100.00;100247.66;6197618;23;20093;-72
2021/09/26 07:19:54;;;;;;;18.38;12.88;;;;;;;16.59;100.00;100250.97;6173202;23;20016;-72
2021/09/26 07:22:46;;;;;;;17.75;11.88;;;;;;;16.61;100.00;100266.28;6222865;23;20008;-79
2021/09/26 07:25:12;;;;;;;18.63;12.85;;;;;;;16.63;100.00;100265.91;6197971;23;20012;-78
2021/09/26 07:27:38;;;;;;;16.45;10.77;;;;;;;16.61;100.00;100263.47;6220981;23;20008;-76
2021/09/26 07:30:04;;;;;;;18.95;12.63;;;;;;;16.66;100.00;100268.03;6249276;23;20310;-73
2021/09/26 07:32:29;;;;;;;14.98;10.18;;;;;;;16.64;100.00;100271.19;6222370;23;20030;-73
2021/09/26 07:34:55;;;;;;;16.08;11.13;;;;;;;16.66;100.00;100280.09;6223133;23;20365;-73
2021/09/26 07:37:20;;;;;;;19.10;12.40;;;;;;;16.67;100.00;100286.53;6222781;23;20011;-73
2021/09/26 07:39:46;;;;;;;21.23;14.93;;;;;;;16.70;100.00;100289.47;6222349;23;20004;-73
2021/09/26 07:42:11;;;;;;;16.65;11.95;;;;;;;16.69;100.00;100293.44;6222189;23;20008;-73
2021/09/26 07:44:37;;;;;;;19.23;13.40;;;;;;;16.71;100.00;100296.69;6222715;23;20015;-73
2021/09/26 07:47:02;;;;;;;14.88;9.88;;;;;;;16.71;100.00;100299.50;6222590;23;20012;-72
2021/09/26 07:49:28;;;;;;;14.80;10.27;;;;;;;16.73;100.00;100305.59;6249151;23;20054;-72
2021/09/26 07:51:53;;;;;;;14.10;10.32;;;;;;;16.73;100.00;100302.78;6220894;23;20083;-72
2021/09/26 07:54:19;;;;;;;15.00;11.02;;;;;;;16.75;100.00;100311.69;6220831;23;20358;-73
2021/09/26 07:56:44;;;;;;;11.40;9.20;;;;;;;16.78;100.00;100312.22;6222075;23;20008;-72
2021/09/26 07:59:10;;;;;;;14.45;10.57;;;;;;;16.79;100.00;100311.84;6221949;23;20011;-72
2021/09/26 08:01:35;;;;;;;14.75;10.60;;;;;;;16.82;100.00;100308.38;6221574;23;20035;-72
2021/09/26 08:04:01;;;;;;;15.80;11.25;;;;;;;16.85;100.00;100318.09;6248207;23;20004;-72
2021/09/26 08:06:26;;;;;;;16.95;11.70;;;;;;;16.89;100.00;100328.28;6197301;23;20008;-72
2021/09/26 08:08:52;;;;;;;14.23;11.10;;;;;;;16.90;100.00;100317.88;6222224;23;20000;-73
2021/09/26 08:11:17;;;;;;;15.90;9.85;;;;;;;16.94;100.00;100324.47;6172177;23;20008;-72
2021/09/26 08:13:43;;;;;;;16.67;11.50;;;;;;;17.00;100.00;100322.28;6147809;23;20038;-72
2021/09/26 08:16:08;;;;;;;14.25;10.15;;;;;;;17.03;100.00;100316.81;6196923;23;20008;-72
2021/09/26 08:18:34;;;;;;;15.95;10.48;;;;;;;17.09;100.00;100329.44;6243614;23;20017;-72
2021/09/26 08:20:59;;;;;;;13.57;9.93;;;;;;;17.14;100.00;100334.06;6218959;23;20008;-72
2021/09/26 08:23:25;;;;;;;14.30;9.57;;;;;;;17.19;99.19;100336.66;6192049;23;20009;-72
2021/09/26 08:25:51;;;;;;;12.05;8.35;;;;;;;17.27;99.54;100338.53;6191602;23;20048;-69
2021/09/26 08:28:17;;;;;;;10.32;8.07;;;;;;;17.34;97.96;100346.41;6167892;23;20077;-73
2021/09/26 08:30:42;;;;;;;12.63;9.57;;;;;;;17.39;97.52;100349.03;6167831;23;20004;-73
2021/09/26 08:33:08;;;;;;;11.73;8.40;;;;;;;17.44;97.52;100360.03;6191866;23;20009;-71
2021/09/26 08:35:33;;;;;;;11.93;8.57;;;;;;;17.49;97.94;100357.00;6217388;23;20008;-71
2021/09/26 08:37:59;;;;;;;16.15;11.43;;;;;;;17.59;100.00;100362.19;6217199;23;20075;-72
2021/09/26 08:40:24;;;;;;;11.68;8.55;;;;;;;17.62;97.80;100361.50;6217077;23;20012;-71
2021/09/26 08:42:50;;;;;;;13.45;9.45;;;;;;;17.71;98.53;100369.03;6143012;23;20087;-71
2021/09/26 08:45:17;;;;;;;14.05;11.65;;;;;;;17.77;99.88;100370.44;6142443;23;20013;-71
2021/09/26 08:47:43;;;;;;;15.15;10.40;;;;;;;17.82;99.90;100370.25;6217789;23;20055;-71
2021/09/26 08:50:17;;;;;;;16.70;10.65;;;;;;;17.90;100.00;100376.97;6167473;23;20008;-71
2021/09/26 08:52:43;;;;;;;13.73;10.60;;;;;;;17.95;100.00;100386.00;6119740;23;20358;-71
2021/09/26 08:55:10;;;;;;;14.77;10.38;;;;;;;18.02;100.00;100391.84;6167676;23;20089;-71
2021/09/26 08:57:35;;;;;;;15.88;10.13;;;;;;;18.06;99.24;100392.81;6142444;23;20036;-71
2021/09/26 09:00:01;;;;;;;12.20;9.50;;;;;;;18.14;98.54;100384.66;6192418;23;20008;-71
2021/09/26 09:02:26;;;;;;;18.30;12.38;;;;;;;18.22;100.00;100394.94;6167169;23;20009;-71
2021/09/26 09:04:52;;;;;;;16.38;11.13;;;;;;;18.27;100.00;100386.28;6167611;23;20004;-71
2021/09/26 09:07:17;;;;;;;18.58;11.98;;;;;;;18.35;100.00;100392.97;6142381;23;20075;-71
2021/09/26 09:10:09;;;;;;;14.00;10.50;;;;;;;18.42;100.00;100391.25;6167057;23;20008;-71
2021/09/26 09:12:38;;;;;;;14.25;9.25;;;;;;;18.49;100.00;100399.91;6209696;23;20035;-70
2021/09/26 09:15:05;;;;;;;14.65;11.40;;;;;;;18.59;100.00;100403.44;6167888;23;20067;-72
2021/09/26 09:17:32;;;;;;;13.55;9.95;;;;;;;18.65;100.00;100402.03;6167156;23;20017;-74
2021/09/26 09:20:13;;;;;;;13.82;9.82;;;;;;;18.72;100.00;100410.69;6180714;23;20412;-74
2021/09/26 09:22:41;;;;;;;16.10;8.93;;;;;;;18.76;99.16;100414.47;6272468;22;20008;-73
2021/09/26 09:25:07;;;;;;;11.82;8.82;;;;;;;18.83;99.99;100417.50;6173026;23;20012;-73
2021/09/26 09:27:32;;;;;;;12.18;9.15;;;;;;;18.83;99.03;100409.06;6222929;23;20004;-74
2021/09/26 09:29:58;;;;;;;14.45;9.50;;;;;;;18.85;99.11;100417.19;6251415;23;20031;-74
2021/09/26 09:32:23;;;;;;;16.17;8.90;;;;;;;18.85;97.55;100418.00;6174066;23;20038;-74
2021/09/26 09:34:49;;;;;;;13.40;8.60;;;;;;;18.86;97.92;100419.66;6199102;23;20424;-74
2021/09/26 09:37:18;;;;;;;14.68;9.43;;;;;;;18.89;98.02;100427.38;6173915;23;20040;-73
2021/09/26 09:40:07;;;;;;;14.57;9.35;;;;;;;18.91;97.12;100425.00;6198392;23;20012;-74
2021/09/26 09:42:48;;;;;;;11.93;8.82;;;;;;;18.93;98.27;100425.50;6174475;23;20012;-73
2021/09/26 09:45:17;;;;;;;13.30;9.60;;;;;;;18.98;98.43;100436.50;6202668;22;20004;-74
2021/09/26 09:47:55;;;;;;;14.40;8.85;;;;;;;19.03;99.25;100435.47;6248529;23;20000;-74
2021/09/26 09:50:21;;;;;;;14.45;8.57;;;;;;;19.07;96.40;100441.19;6173511;23;20028;-73
2021/09/26 09:52:53;;;;;;;12.48;7.97;;;;;;;19.13;96.88;100434.97;6198598;23;20069;-74
2021/09/26 09:55:18;;;;;;;13.95;8.15;;;;;;;19.21;94.64;100441.66;6177420;23;20019;-73
2021/09/26 09:57:44;;;;;;;14.38;7.70;;;;;;;19.29;95.23;100442.69;6173883;23;20016;-74
2021/09/26 10:00:22;;;;;;;14.15;8.02;;;;;;;19.39;93.85;100434.59;6173475;23;20213;-72
2021/09/26 10:02:48;;;;;;;15.85;8.15;;;;;;;19.45;91.71;100446.41;6249644;23;20057;-73
2021/09/26 10:05:43;;;;;;;13.20;8.18;;;;;;;19.54;89.05;100451.91;6197486;23;20503;-72
2021/09/26 10:08:08;;;;;;;16.25;9.27;;;;;;;19.59;90.05;100443.22;6209569;23;20008;-72
2021/09/26 10:10:34;;;;;;;28.48;13.05;;;;;;;19.66;89.38;100451.09;6197381;23;20019;-73
2021/09/26 10:13:12;;;;;;;24.70;11.65;;;;;;;19.73;88.43;100446.47;6222609;23;20035;-74
2021/09/26 10:15:38;;;;;;;23.08;12.40;;;;;;;19.79;88.27;100447.88;6198348;23;20028;-76
2021/09/26 10:18:04;;;;;;;27.17;12.98;;;;;;;19.88;87.96;100449.72;6172279;23;20054;-77
2021/09/26 10:20:29;;;;;;;24.30;12.70;;;;;;;19.96;87.76;100451.56;6175652;22;20015;-77
2021/09/26 10:22:55;;;;;;;20.35;12.38;;;;;;;20.05;89.14;100449.38;6203372;22;20018;-76
2021/09/26 10:25:21;;;;;;;20.38;11.07;;;;;;;20.14;87.79;100460.50;6228055;22;20071;-77
2021/09/26 10:27:47;;;;;;;20.83;11.18;;;;;;;20.22;87.17;100457.53;6252704;22;20062;-76
2021/09/26 10:30:13;;;;;;;18.83;11.52;;;;;;;20.36;86.61;100456.28;6201460;22;20097;-72
2021/09/26 10:32:39;;;;;;;21.50;11.95;;;;;;;20.49;86.06;100455.03;6227714;22;20035;-72
2021/09/26 10:35:05;;;;;;;17.88;12.13;;;;;;;20.64;86.24;100450.59;6202304;22;20004;-71
2021/09/26 10:37:30;;;;;;;20.33;11.25;;;;;;;20.78;85.90;100458.59;6252983;22;20007;-72
2021/09/26 10:39:56;;;;;;;16.60;10.25;;;;;;;20.94;85.92;100462.25;6226954;22;20337;-72
2021/09/26 10:42:22;;;;;;;22.35;11.07;;;;;;;21.07;84.77;100457.31;6227565;22;20010;-72
2021/09/26 10:44:48;;;;;;;17.70;10.68;;;;;;;21.17;83.74;100451.94;6227558;22;20004;-72
2021/09/26 10:47:19;;;;;;;20.88;12.50;;;;;;;21.25;82.85;100460.56;6252193;22;20019;-72
2021/09/26 10:50:02;;;;;;;17.70;10.80;;;;;;;21.30;83.33;100452.63;6228339;22;20484;-72
2021/09/26 10:52:29;;;;;;;20.38;11.73;;;;;;;21.36;81.58;100453.16;6230631;22;20014;-72
2021/09/26 10:54:55;;;;;;;20.48;12.40;;;;;;;21.39;81.39;100447.59;6252434;22;20058;-73
2021/09/26 10:57:25;;;;;;;21.55;12.23;;;;;;;21.44;81.37;100451.34;6252284;22;20018;-72
2021/09/26 11:00:00;;;;;;;17.15;10.23;;;;;;;21.51;81.02;100448.69;6227418;22;20098;-73
2021/09/26 11:02:26;;;;;;;16.52;10.77;;;;;;;21.56;80.67;100440.72;6226963;22;20003;-73
2021/09/26 11:04:53;;;;;;;18.83;10.80;;;;;;;21.62;81.00;100439.25;6279429;22;20008;-73